Time;durP1;ratioP1;P1;durP2;ratioP2;P2;SDS_P1;SDS_P2;PMS_P1;PMS_P2;Temp;Humidity;BMP_temperature;BMP_pressure;BME280_temperature;BME280_humidity;BME280_pressure;Samples;Min_cycle;Max_cycle;Signal;HPM_P1;HPM_P2
2022/04/27 00:00:11;;;;;;;18.95;12.48;;;;;;;2.89;100.00;102309.72;5339637;27;20031;-73
2022/04/27 00:02:42;;;;;;;19.55;12.10;;;;;;;2.85;100.00;102313.41;5353436;27;20424;-74
2022/04/27 00:05:14;;;;;;;15.23;10.93;;;;;;;2.84;100.00;102306.44;5354895;27;20068;-74
2022/04/27 00:07:45;;;;;;;13.88;10.15;;;;;;;2.85;100.00;102300.22;5352331;27;20027;-74
2022/04/27 00:10:20;;;;;;;12.30;9.88;;;;;;;2.82;100.00;102310.88;5350823;27;20027;-74
2022/04/27 00:12:51;;;;;;;13.18;10.43;;;;;;;2.91;100.00;102300.00;5347916;27;20030;-74
2022/04/27 00:15:25;;;;;;;19.58;12.82;;;;;;;2.73;100.00;102305.94;5354740;27;20027;-74
2022/04/27 00:17:57;;;;;;;16.08;11.95;;;;;;;2.53;100.00;102304.03;5353343;27;20031;-74
2022/04/27 00:20:28;;;;;;;13.50;10.75;;;;;;;2.39;100.00;102296.63;5359966;27;20019;-73
2022/04/27 00:22:59;;;;;;;17.95;11.63;;;;;;;2.35;100.00;102290.59;5352839;27;20045;-73
2022/04/27 00:25:31;;;;;;;17.85;11.55;;;;;;;2.38;100.00;102290.47;5351457;27;20027;-73
2022/04/27 00:28:03;;;;;;;15.00;10.70;;;;;;;2.25;100.00;102297.09;5351401;27;20052;-74
2022/04/27 00:30:34;;;;;;;14.07;10.25;;;;;;;2.34;100.00;102296.78;5357235;27;20034;-73
2022/04/27 00:33:06;;;;;;;14.80;11.98;;;;;;;2.18;100.00;102301.72;5354499;27;20051;-73
2022/04/27 00:35:37;;;;;;;17.73;12.18;;;;;;;2.15;100.00;102304.44;5353502;27;20487;-72
2022/04/27 00:38:09;;;;;;;19.13;11.85;;;;;;;2.18;100.00;102309.59;5356136;27;20023;-73
2022/04/27 00:40:40;;;;;;;18.45;12.57;;;;;;;2.10;100.00;102305.50;5360295;27;20023;-73
2022/04/27 00:43:15;;;;;;;22.75;13.93;;;;;;;2.01;100.00;102311.94;5348245;27;20110;-73
2022/04/27 00:45:46;;;;;;;13.18;9.77;;;;;;;1.94;100.00;102310.44;5360009;27;20040;-73
2022/04/27 00:48:17;;;;;;;17.23;11.48;;;;;;;1.83;100.00;102318.69;5352032;27;20044;-73
2022/04/27 00:50:49;;;;;;;16.95;12.35;;;;;;;1.84;100.00;102316.00;5352318;27;20023;-73
2022/04/27 00:53:20;;;;;;;17.08;12.15;;;;;;;1.74;100.00;102311.94;5351901;27;21218;-74
2022/04/27 00:55:51;;;;;;;18.92;13.35;;;;;;;1.75;100.00;102320.69;5345914;27;41615;-73
2022/04/27 00:58:24;;;;;;;18.77;14.50;;;;;;;1.81;100.00;102324.00;5352299;27;20034;-73
2022/04/27 01:00:56;;;;;;;17.30;14.02;;;;;;;1.71;100.00;102317.31;5346998;27;20035;-74
2022/04/27 01:03:27;;;;;;;17.58;14.88;;;;;;;1.62;100.00;102326.34;5353408;27;20030;-73
2022/04/27 01:05:59;;;;;;;15.90;12.38;;;;;;;1.69;100.00;102327.88;5352455;27;20042;-72
2022/04/27 01:08:30;;;;;;;15.98;12.55;;;;;;;1.59;100.00;102329.06;5348674;27;20162;-73
2022/04/27 01:11:02;;;;;;;17.35;11.90;;;;;;;1.60;100.00;102332.56;5350034;27;20150;-74
2022/04/27 01:13:34;;;;;;;18.83;14.20;;;;;;;1.89;100.00;102329.88;5346131;27;20031;-73
2022/04/27 01:16:06;;;;;;;19.35;13.80;;;;;;;1.95;100.00;102328.81;5350025;27;20503;-73
2022/04/27 01:18:37;;;;;;;19.35;15.15;;;;;;;2.16;100.00;102334.28;5353414;27;20023;-73
2022/04/27 01:21:09;;;;;;;22.20;15.60;;;;;;;2.05;100.00;102331.97;5350801;27;20019;-73
2022/04/27 01:23:40;;;;;;;27.45;17.90;;;;;;;2.04;100.00;102332.91;5346706;27;20054;-74
2022/04/27 01:26:11;;;;;;;22.45;17.83;;;;;;;1.65;100.00;102331.53;5347420;27;20574;-74
2022/04/27 01:28:45;;;;;;;22.27;16.13;;;;;;;1.85;100.00;102330.88;5350980;27;20019;-73
2022/04/27 01:31:16;;;;;;;29.13;18.33;;;;;;;1.95;100.00;102341.13;5354553;27;20030;-73
2022/04/27 01:33:47;;;;;;;26.88;18.45;;;;;;;2.08;100.00;102340.63;5354518;27;25800;-73
2022/04/27 01:36:18;;;;;;;26.80;16.20;;;;;;;2.16;100.00;102340.41;5358622;27;20123;-74
2022/04/27 01:38:50;;;;;;;24.05;18.10;;;;;;;2.27;100.00;102342.66;5354421;27;20096;-74
2022/04/27 01:41:21;;;;;;;25.35;16.95;;;;;;;2.26;100.00;102340.94;5356549;27;20019;-73
2022/04/27 01:43:52;;;;;;;34.35;22.80;;;;;;;2.09;100.00;102336.25;5351746;27;20088;-73
2022/04/27 01:46:24;;;;;;;28.50;18.40;;;;;;;2.02;100.00;102343.50;5354887;27;20461;-74
2022/04/27 01:48:56;;;;;;;24.15;16.67;;;;;;;1.96;100.00;102335.78;5346009;27;20046;-73
2022/04/27 01:54:17;;;;;;;22.77;15.40;;;;;;;1.75;100.00;102345.22;5354939;27;20066;-73
2022/04/27 01:56:50;;;;;;;25.65;15.82;;;;;;;1.88;100.00;102353.59;5354696;27;20058;-73
2022/04/27 01:59:21;;;;;;;21.60;16.30;;;;;;;1.63;100.00;102353.50;5352013;27;20023;-73
2022/04/27 02:01:53;;;;;;;28.13;16.80;;;;;;;1.40;100.00;102355.06;5355574;27;43223;-73
2022/04/27 02:04:24;;;;;;;27.75;17.08;;;;;;;1.39;100.00;102355.13;5346283;27;20081;-73
2022/04/27 02:06:56;;;;;;;26.88;19.15;;;;;;;1.26;100.00;102352.00;5343343;27;20488;-73
2022/04/27 02:09:27;;;;;;;28.75;21.20;;;;;;;1.18;100.00;102362.75;5348230;27;20019;-73
2022/04/27 02:11:58;;;;;;;24.20;17.67;;;;;;;1.19;100.00;102355.72;5351178;27;20106;-73
2022/04/27 02:14:29;;;;;;;28.40;17.10;;;;;;;1.26;100.00;102354.63;5343747;27;20035;-73
2022/04/27 02:17:01;;;;;;;31.92;20.85;;;;;;;1.09;100.00;102355.13;5352855;27;20042;-73
2022/04/27 02:19:32;;;;;;;24.60;15.73;;;;;;;1.08;100.00;102361.28;5349710;27;20027;-73
2022/04/27 02:22:04;;;;;;;22.58;15.70;;;;;;;1.03;100.00;102361.41;5343291;27;20024;-73
2022/04/27 02:24:36;;;;;;;24.67;16.23;;;;;;;1.41;100.00;102369.09;5352895;27;20114;-73
2022/04/27 02:27:07;;;;;;;34.60;16.77;;;;;;;1.57;100.00;102365.06;5342057;27;20469;-73
2022/04/27 02:29:38;;;;;;;28.73;17.10;;;;;;;1.64;100.00;102361.34;5345752;27;20034;-73
2022/04/27 02:32:09;;;;;;;27.95;18.73;;;;;;;1.75;100.00;102374.16;5347051;27;20016;-74
2022/04/27 02:34:42;;;;;;;35.83;20.52;;;;;;;2.03;100.00;102365.41;5351178;27;20034;-73
2022/04/27 02:37:13;;;;;;;35.58;22.23;;;;;;;2.17;100.00;102363.16;5348631;27;20023;-73
2022/04/27 02:39:45;;;;;;;31.95;20.15;;;;;;;2.35;100.00;102366.97;5351054;27;20484;-74
2022/04/27 02:42:17;;;;;;;33.53;20.88;;;;;;;2.40;100.00;102369.44;5348002;27;20031;-74
2022/04/27 02:44:49;;;;;;;33.42;21.08;;;;;;;2.40;100.00;102377.34;5344087;27;20059;-74
2022/04/27 02:47:20;;;;;;;35.30;21.48;;;;;;;2.26;100.00;102378.69;5352719;27;20584;-74
2022/04/27 02:52:41;;;;;;;34.72;19.33;;;;;;;1.98;100.00;102384.00;5346245;27;20067;-73
2022/04/27 02:55:13;;;;;;;27.65;19.80;;;;;;;1.98;100.00;102381.34;5342413;27;20062;-74
2022/04/27 02:57:44;;;;;;;31.00;19.67;;;;;;;2.01;100.00;102385.66;5346281;27;20038;-73
2022/04/27 03:00:16;;;;;;;35.30;22.90;;;;;;;1.63;100.00;102385.94;5346857;27;20031;-73
2022/04/27 03:02:47;;;;;;;36.65;22.50;;;;;;;1.54;100.00;102385.34;5352060;27;20134;-73
2022/04/27 03:05:18;;;;;;;32.30;19.77;;;;;;;1.46;100.00;102382.97;5343807;27;20476;-73
2022/04/27 03:07:50;;;;;;;31.73;20.60;;;;;;;1.40;100.00;102397.13;5347477;27;20031;-73
2022/04/27 03:10:21;;;;;;;32.95;21.00;;;;;;;1.36;100.00;102387.63;5346835;27;20043;-73
2022/04/27 03:12:52;;;;;;;37.33;22.75;;;;;;;1.25;100.00;102387.94;5345173;27;20036;-73
2022/04/27 03:15:24;;;;;;;27.98;18.95;;;;;;;1.08;100.00;102377.91;5346736;27;20049;-73
2022/04/27 03:20:48;;;;;;;31.55;20.65;;;;;;;0.79;100.00;102383.09;5347508;27;20036;-73
2022/04/27 03:23:19;;;;;;;30.10;21.15;;;;;;;0.68;100.00;102384.25;5348703;27;20030;-73
2022/04/27 03:25:50;;;;;;;23.50;16.92;;;;;;;0.57;100.00;102384.53;5349944;27;20019;-73
2022/04/27 03:28:21;;;;;;;30.58;17.45;;;;;;;0.66;100.00;102390.47;5347182;27;20024;-73
2022/04/27 03:30:53;;;;;;;27.98;16.55;;;;;;;0.91;100.00;102390.66;5350297;27;20636;-73
2022/04/27 03:33:24;;;;;;;32.65;18.55;;;;;;;0.91;100.00;102386.28;5349465;27;20036;-73
2022/04/27 03:35:55;;;;;;;33.97;20.45;;;;;;;0.88;100.00;102381.09;5346222;27;20035;-74
2022/04/27 03:38:27;;;;;;;37.38;20.42;;;;;;;1.22;100.00;102389.81;5348524;27;20492;-74
2022/04/27 03:40:58;;;;;;;37.38;22.25;;;;;;;1.34;100.00;102392.06;5342011;27;20085;-74
2022/04/27 03:43:29;;;;;;;44.90;23.35;;;;;;;1.49;100.00;102396.00;5345034;27;20031;-74
2022/04/27 03:46:01;;;;;;;40.95;21.90;;;;;;;1.37;100.00;102396.38;5343879;27;20158;-74
2022/04/27 03:48:32;;;;;;;40.53;24.38;;;;;;;1.55;100.00;102397.59;5350121;27;20092;-74
2022/04/27 03:51:04;;;;;;;43.72;23.27;;;;;;;1.47;100.00;102401.34;5346663;27;20031;-74
2022/04/27 03:53:35;;;;;;;46.35;23.98;;;;;;;1.35;100.00;102403.44;5353059;27;20031;-74
2022/04/27 03:56:06;;;;;;;43.72;23.77;;;;;;;1.47;100.00;102403.09;5347931;27;39604;-74
2022/04/27 03:58:38;;;;;;;33.10;20.55;;;;;;;1.37;100.00;102404.25;5350556;27;20015;-74
2022/04/27 04:01:10;;;;;;;37.17;20.33;;;;;;;0.96;100.00;102401.91;5349970;27;20027;-74
2022/04/27 04:03:41;;;;;;;36.15;20.75;;;;;;;0.87;100.00;102416.16;5355448;27;20476;-74
2022/04/27 04:06:12;;;;;;;37.17;21.52;;;;;;;0.80;100.00;102411.97;5348164;27;20031;-73
2022/04/27 04:08:43;;;;;;;49.47;29.40;;;;;;;0.63;100.00;102412.44;5351233;27;20436;-73
2022/04/27 04:11:15;;;;;;;50.83;28.23;;;;;;;0.48;100.00;102418.91;5347726;27;20578;-73
2022/04/27 04:13:46;;;;;;;43.85;25.33;;;;;;;0.40;100.00;102420.00;5348568;27;20062;-73
2022/04/27 04:16:17;;;;;;;39.30;25.38;;;;;;;0.26;100.00;102422.97;5348333;27;20070;-73
2022/04/27 04:18:48;;;;;;;46.40;24.13;;;;;;;0.30;100.00;102427.25;5352834;27;20024;-73
2022/04/27 04:21:20;;;;;;;36.47;20.67;;;;;;;0.12;100.00;102423.28;5345145;27;20038;-73
2022/04/27 04:23:51;;;;;;;30.85;18.58;;;;;;;0.06;100.00;102412.97;5346095;27;20491;-73
2022/04/27 04:29:12;;;;;;;42.85;21.02;;;;;;;0.37;100.00;102426.22;5344817;27;20027;-73
2022/04/27 04:31:43;;;;;;;41.63;21.17;;;;;;;0.41;100.00;102427.00;5346073;27;20050;-73
2022/04/27 04:34:15;;;;;;;40.50;21.20;;;;;;;0.75;100.00;102429.59;5347552;27;20027;-75
2022/04/27 04:36:46;;;;;;;42.03;22.75;;;;;;;0.66;100.00;102438.59;5346085;27;20473;-75
2022/04/27 04:39:17;;;;;;;47.40;25.00;;;;;;;0.84;100.00;102439.00;5346347;27;20511;-75
2022/04/27 04:41:48;;;;;;;42.55;24.90;;;;;;;0.90;100.00;102444.13;5348912;27;20051;-75
2022/04/27 04:44:20;;;;;;;49.40;24.58;;;;;;;0.86;100.00;102443.34;5349183;27;20071;-75
2022/04/27 04:46:51;;;;;;;54.45;27.83;;;;;;;0.82;100.00;102451.31;5349735;27;20892;-75
2022/04/27 04:49:22;;;;;;;56.20;28.02;;;;;;;0.63;100.00;102456.19;5346554;27;20423;-75
2022/04/27 04:51:54;;;;;;;48.38;26.55;;;;;;;0.97;100.00;102456.19;5348320;27;20036;-75
2022/04/27 04:54:25;;;;;;;53.40;28.40;;;;;;;1.14;100.00;102461.00;5352584;27;20093;-75
2022/04/27 04:56:56;;;;;;;52.00;28.52;;;;;;;1.17;100.00;102463.53;5343073;27;20055;-75
2022/04/27 04:59:27;;;;;;;61.80;29.10;;;;;;;1.00;100.00;102464.00;5345630;27;20028;-75
2022/04/27 05:01:59;;;;;;;69.57;32.38;;;;;;;0.89;100.00;102456.38;5348224;27;20041;-74
2022/04/27 05:04:30;;;;;;;65.30;33.58;;;;;;;0.90;100.00;102462.50;5346814;27;20034;-74
2022/04/27 05:07:02;;;;;;;60.30;30.83;;;;;;;0.92;100.00;102466.81;5348189;27;20500;-74
2022/04/27 05:09:33;;;;;;;66.85;35.10;;;;;;;0.94;100.00;102465.00;5351913;27;20646;-74
2022/04/27 05:12:05;;;;;;;56.25;29.40;;;;;;;0.92;100.00;102472.06;5349501;27;20645;-74
2022/04/27 05:27:24;;;;;;;81.03;39.13;;;;;;;2.66;100.00;102489.72;5359127;27;20592;-74
2022/04/27 05:32:45;;;;;;;55.20;29.58;;;;;;;3.05;100.00;102489.31;5340204;27;20043;-74
2022/04/27 05:35:17;;;;;;;75.28;36.67;;;;;;;3.05;100.00;102497.22;5339736;27;20107;-74
2022/04/27 05:37:48;;;;;;;62.20;35.33;;;;;;;3.29;100.00;102502.53;5334988;27;20438;-74
2022/04/27 05:40:20;;;;;;;66.15;34.97;;;;;;;3.20;100.00;102506.34;5336184;27;20392;-74
2022/04/27 05:42:54;;;;;;;50.33;31.65;;;;;;;3.58;100.00;102507.63;5340888;27;20362;-75
2022/04/27 05:45:25;;;;;;;52.17;28.45;;;;;;;3.69;100.00;102504.56;5339536;27;20083;-75
2022/04/27 05:47:56;;;;;;;46.55;28.40;;;;;;;3.69;100.00;102509.00;5337574;27;20024;-75
2022/04/27 05:50:28;;;;;;;42.22;25.95;;;;;;;3.74;100.00;102512.34;5339718;27;20023;-75
2022/04/27 05:53:00;;;;;;;32.05;23.77;;;;;;;3.93;100.00;102510.72;5339558;27;20070;-75
2022/04/27 05:55:31;;;;;;;36.88;25.05;;;;;;;4.13;100.00;102514.38;5339126;27;20097;-75
2022/04/27 05:58:02;;;;;;;32.55;22.65;;;;;;;4.32;100.00;102511.88;5335234;27;20708;-74
2022/04/27 06:00:34;;;;;;;33.15;22.20;;;;;;;4.54;100.00;102519.78;5339105;27;20122;-75
2022/04/27 06:03:05;;;;;;;28.52;21.63;;;;;;;5.07;100.00;102523.78;5334387;27;20036;-75
2022/04/27 06:05:36;;;;;;;24.75;18.88;;;;;;;5.46;100.00;102525.59;5354009;27;32141;-74
2022/04/27 06:08:09;;;;;;;20.23;17.13;;;;;;;5.80;100.00;102521.44;5330398;27;20115;-75
2022/04/27 06:10:40;;;;;;;19.17;16.25;;;;;;;6.12;100.00;102529.69;5328998;27;20396;-75
2022/04/27 06:13:13;;;;;;;21.05;16.13;;;;;;;6.43;100.00;102523.78;5343117;27;20036;-75
2022/04/27 06:15:45;;;;;;;16.88;14.35;;;;;;;7.08;100.00;102536.50;5338581;27;20385;-75
2022/04/27 06:18:16;;;;;;;16.50;14.68;;;;;;;7.56;100.00;102533.09;5334979;27;20030;-75
2022/04/27 06:20:47;;;;;;;23.77;15.90;;;;;;;7.63;100.00;102533.63;5337773;27;20114;-75
2022/04/27 06:23:19;;;;;;;16.38;14.60;;;;;;;8.10;100.00;102532.84;5339494;27;20077;-75
2022/04/27 06:25:50;;;;;;;16.25;13.30;;;;;;;8.18;100.00;102529.75;5336859;27;20048;-75
2022/04/27 06:28:21;;;;;;;17.23;12.05;;;;;;;8.93;100.00;102532.59;5323875;27;20048;-75
2022/04/27 06:30:53;;;;;;;13.32;11.93;;;;;;;9.13;100.00;102535.88;5321932;27;20028;-75
2022/04/27 06:33:24;;;;;;;11.30;9.40;;;;;;;9.56;100.00;102534.13;5322860;27;20038;-75
2022/04/27 06:35:55;;;;;;;10.68;9.57;;;;;;;9.78;100.00;102532.78;5322538;27;20474;-75
2022/04/27 06:38:27;;;;;;;12.52;9.73;;;;;;;10.41;100.00;102531.47;5323550;27;20392;-75
2022/04/27 06:40:58;;;;;;;11.55;10.07;;;;;;;10.46;100.00;102529.38;5321868;28;20024;-75
2022/04/27 06:43:29;;;;;;;10.60;9.13;;;;;;;10.83;100.00;102521.59;5323503;27;20074;-75
2022/04/27 06:46:01;;;;;;;12.98;8.48;;;;;;;11.17;100.00;102524.66;5321647;27;20086;-74
2022/04/27 06:48:33;;;;;;;9.18;7.57;;;;;;;11.76;100.00;102532.09;5323307;27;20028;-75
2022/04/27 06:51:04;;;;;;;11.55;7.53;;;;;;;12.47;100.00;102530.56;5326938;27;20374;-75
2022/04/27 06:53:37;;;;;;;12.32;7.65;;;;;;;12.67;100.00;102534.44;5324238;27;20075;-75
2022/04/27 06:56:08;;;;;;;11.07;6.40;;;;;;;13.08;100.00;102532.28;5322359;27;20043;-75
2022/04/27 06:58:39;;;;;;;9.50;7.05;;;;;;;13.57;100.00;102527.63;5323333;28;20032;-75
2022/04/27 07:01:13;;;;;;;8.27;6.38;;;;;;;13.69;100.00;102537.38;5320858;27;20027;-76
2022/04/27 07:03:45;;;;;;;9.15;6.57;;;;;;;14.17;100.00;102530.88;5319058;27;20085;-75
2022/04/27 07:06:16;;;;;;;10.10;6.30;;;;;;;14.32;100.00;102543.06;5323029;27;20154;-75
2022/04/27 07:08:48;;;;;;;10.55;6.43;;;;;;;14.66;100.00;102544.81;5326791;27;20796;-75
2022/04/27 07:11:19;;;;;;;9.07;6.13;;;;;;;15.22;100.00;102541.00;5309817;27;20342;-75
2022/04/27 07:13:51;;;;;;;11.30;6.22;;;;;;;15.69;100.00;102536.03;5326037;27;20111;-75
2022/04/27 07:16:22;;;;;;;10.60;6.32;;;;;;;16.47;100.00;102536.25;5320772;27;20501;-75
2022/04/27 07:18:53;;;;;;;8.38;5.55;;;;;;;16.54;100.00;102552.69;5321838;27;20417;-75
2022/04/27 07:21:25;;;;;;;5.25;4.55;;;;;;;16.80;100.00;102553.84;5317533;27;20028;-75
2022/04/27 07:23:58;;;;;;;7.88;5.22;;;;;;;16.44;100.00;102549.97;5323065;27;20020;-75
2022/04/27 07:26:30;;;;;;;9.75;5.75;;;;;;;17.03;97.38;102548.19;5323000;27;20052;-75
2022/04/27 07:29:01;;;;;;;8.48;5.80;;;;;;;17.04;89.23;102549.91;5313094;27;20119;-75
2022/04/27 07:31:33;;;;;;;9.35;6.05;;;;;;;17.91;100.00;102553.38;5325547;27;20480;-75
2022/04/27 07:34:05;;;;;;;12.88;5.25;;;;;;;18.47;77.49;102560.41;5318515;28;20085;-74
2022/04/27 07:36:36;;;;;;;6.78;4.80;;;;;;;19.23;83.49;102553.69;5321273;27;20036;-76
2022/04/27 07:39:07;;;;;;;8.38;4.45;;;;;;;20.27;59.94;102557.28;5318940;27;20028;-75
2022/04/27 07:41:38;;;;;;;6.70;4.38;;;;;;;20.85;49.06;102558.25;5313378;27;20144;-76
2022/04/27 07:44:10;;;;;;;8.80;4.60;;;;;;;20.20;44.60;102562.50;5315815;27;20043;-75
2022/04/27 07:46:47;;;;;;;8.38;4.57;;;;;;;20.28;45.58;102563.53;5332384;27;20109;-75
2022/04/27 07:49:19;;;;;;;6.30;4.25;;;;;;;20.49;44.31;102560.38;5321610;27;20032;-75
2022/04/27 07:51:51;;;;;;;6.28;3.80;;;;;;;22.26;42.49;102565.88;5328542;27;20050;-75
2022/04/27 07:54:22;;;;;;;5.55;4.05;;;;;;;22.23;39.79;102557.22;5319157;27;20028;-76
2022/04/27 07:56:53;;;;;;;5.47;3.40;;;;;;;22.86;40.36;102560.75;5322123;27;20423;-75
2022/04/27 07:59:26;;;;;;;7.27;3.83;;;;;;;22.97;37.29;102568.47;5321771;27;20025;-75
2022/04/27 08:01:57;;;;;;;6.72;3.70;;;;;;;23.63;34.46;102565.09;5329193;27;20587;-75
2022/04/27 08:04:28;;;;;;;3.97;2.78;;;;;;;23.44;34.05;102563.81;5315161;27;23668;-76
2022/04/27 08:06:59;;;;;;;4.78;2.65;;;;;;;24.82;33.41;102569.50;5322289;27;20024;-75
2022/04/27 08:09:31;;;;;;;6.15;2.97;;;;;;;24.91;32.68;102561.00;5328737;27;20405;-75
2022/04/27 08:12:02;;;;;;;6.20;3.63;;;;;;;24.92;29.92;102570.84;5329494;27;20533;-75
2022/04/27 08:14:36;;;;;;;6.22;3.55;;;;;;;24.21;31.63;102567.16;5317682;27;20048;-75
2022/04/27 08:17:07;;;;;;;7.07;3.30;;;;;;;23.54;31.82;102572.53;5314503;27;20104;-76
2022/04/27 08:19:38;;;;;;;4.97;2.30;;;;;;;25.78;30.45;102566.22;5314323;27;20043;-76
2022/04/27 08:22:11;;;;;;;4.78;2.78;;;;;;;25.98;33.56;102569.94;5323792;27;20134;-76
2022/04/27 08:24:42;;;;;;;5.72;3.40;;;;;;;25.46;29.18;102572.16;5317158;27;20027;-76
2022/04/27 08:27:13;;;;;;;5.53;3.13;;;;;;;26.19;31.01;102573.56;5316693;27;20162;-76
2022/04/27 08:29:45;;;;;;;5.30;3.20;;;;;;;25.27;30.23;102573.69;5311038;27;20067;-76
2022/04/27 08:32:16;;;;;;;5.30;3.30;;;;;;;26.44;30.09;102584.81;5319474;27;20028;-75
2022/04/27 08:34:50;;;;;;;5.40;2.78;;;;;;;26.98;30.21;102581.13;5313965;27;20270;-75
2022/04/27 08:37:21;;;;;;;4.50;3.00;;;;;;;27.34;27.34;102579.84;5317475;27;20358;-76
2022/04/27 08:39:54;;;;;;;4.77;3.80;;;;;;;28.36;26.23;102578.47;5317330;27;20028;-75
2022/04/27 08:42:25;;;;;;;7.45;3.35;;;;;;;27.05;28.94;102578.41;5312741;27;20767;-74
2022/04/27 08:44:56;;;;;;;5.32;3.03;;;;;;;26.82;31.76;102587.00;5316777;27;20029;-75
2022/04/27 08:47:29;;;;;;;5.70;3.53;;;;;;;27.00;32.54;102582.81;5319301;27;20028;-75
2022/04/27 08:50:11;;;;;;;6.40;3.60;;;;;;;27.49;29.38;102592.47;5316970;27;21677;-75
2022/04/27 08:52:43;;;;;;;5.40;2.88;;;;;;;27.07;31.01;102589.97;5322003;27;20020;-76
2022/04/27 08:55:16;;;;;;;7.13;2.95;;;;;;;27.47;30.40;102600.94;5324963;27;20070;-75
2022/04/27 08:57:50;;;;;;;5.95;3.20;;;;;;;27.87;31.06;102589.00;5322541;27;20072;-76
2022/04/27 09:00:24;;;;;;;5.05;3.17;;;;;;;25.99;27.65;102590.75;5311183;27;20016;-76
2022/04/27 09:03:16;;;;;;;6.32;3.50;;;;;;;26.18;30.30;102588.31;5316939;28;20093;-76
2022/04/27 09:05:51;;;;;;;6.97;3.53;;;;;;;26.52;32.26;102590.06;5319870;27;20567;-76
2022/04/27 09:08:43;;;;;;;6.60;2.83;;;;;;;28.19;33.27;102589.97;5322523;27;20526;-75
2022/04/27 09:11:20;;;;;;;9.27;3.40;;;;;;;27.35;28.56;102584.31;5320304;27;20111;-76
2022/04/27 09:13:55;;;;;;;9.43;3.25;;;;;;;27.65;28.48;102591.22;5323077;28;20085;-76
2022/04/27 09:22:51;;;;;;;5.38;2.80;;;;;;;32.65;24.13;102585.91;5320862;27;20573;-76
2022/04/27 09:25:36;;;;;;;4.47;2.88;;;;;;;31.86;26.42;102592.91;5321680;27;20051;-76
2022/04/27 09:28:07;;;;;;;4.87;2.70;;;;;;;30.59;26.94;102586.00;5336339;27;20032;-76
2022/04/27 09:30:39;;;;;;;3.97;2.80;;;;;;;30.89;26.71;102586.78;5320003;27;20290;-76
2022/04/27 09:33:10;;;;;;;4.72;2.88;;;;;;;29.17;21.36;102585.97;5321014;27;20270;-76
2022/04/27 09:35:41;;;;;;;7.18;3.35;;;;;;;31.44;20.26;102588.38;5322505;27;20032;-76
2022/04/27 09:38:18;;;;;;;4.97;2.80;;;;;;;30.93;23.62;102589.94;5318452;27;20210;-76
2022/04/27 09:40:55;;;;;;;4.13;2.90;;;;;;;32.17;20.22;102588.88;5321676;27;20461;-76
2022/04/27 09:43:46;;;;;;;5.07;2.85;;;;;;;31.64;22.43;102589.94;5334540;27;20087;-76
2022/04/27 09:46:25;;;;;;;6.50;3.63;;;;;;;31.86;22.66;102595.66;5314703;27;20048;-76
2022/04/27 09:49:07;;;;;;;4.80;3.38;;;;;;;32.16;24.94;102597.41;5322119;27;20035;-76
2022/04/27 09:51:50;;;;;;;6.15;3.10;;;;;;;30.68;22.05;102584.56;5319156;27;20045;-77
2022/04/27 09:54:24;;;;;;;7.47;3.60;;;;;;;30.45;21.34;102588.97;5303561;28;20028;-77
2022/04/27 09:56:56;;;;;;;4.38;3.10;;;;;;;31.23;21.63;102583.47;5322356;27;20043;-76
2022/04/27 09:59:32;;;;;;;3.75;3.20;;;;;;;32.53;23.23;102586.75;5319606;27;20077;-76
2022/04/27 10:02:07;;;;;;;5.65;3.45;;;;;;;32.69;20.78;102589.81;5320618;27;20024;-76
2022/04/27 10:04:39;;;;;;;6.75;3.53;;;;;;;31.61;20.94;102591.28;5322989;27;20055;-76
2022/04/27 10:07:13;;;;;;;5.70;3.65;;;;;;;32.72;19.16;102592.94;5325103;27;20070;-76
2022/04/27 10:09:44;;;;;;;5.70;3.78;;;;;;;33.54;21.53;102585.09;5327828;27;20143;-77
2022/04/27 10:12:16;;;;;;;4.40;3.10;;;;;;;33.59;18.83;102582.38;5325442;27;20044;-75
2022/04/27 10:14:47;;;;;;;5.90;3.58;;;;;;;33.81;24.05;102587.13;5323990;27;20028;-76
2022/04/27 10:17:18;;;;;;;9.68;3.75;;;;;;;33.57;18.05;102576.25;5317607;27;20020;-76
2022/04/27 10:19:50;;;;;;;6.05;3.95;;;;;;;33.65;20.61;102580.53;5322462;27;20459;-76
2022/04/27 10:22:31;;;;;;;4.63;3.75;;;;;;;32.17;19.71;102582.50;5328638;27;20097;-76
2022/04/27 10:25:07;;;;;;;6.32;3.70;;;;;;;33.08;23.15;102567.78;5326372;27;20020;-76
2022/04/27 10:27:40;;;;;;;4.70;3.40;;;;;;;32.97;21.47;102567.63;5317810;27;20044;-76
2022/04/27 10:30:13;;;;;;;5.88;4.03;;;;;;;33.67;20.96;102565.34;5328311;27;20016;-77
2022/04/27 10:32:49;;;;;;;7.65;3.72;;;;;;;34.19;22.91;102568.75;5316449;27;20475;-76
2022/04/27 10:35:27;;;;;;;5.88;4.00;;;;;;;32.60;18.24;102564.53;5324306;27;20060;-76
2022/04/27 10:38:02;;;;;;;5.57;3.65;;;;;;;32.77;20.20;102570.09;5321815;27;20024;-76
2022/04/27 10:40:43;;;;;;;7.03;3.83;;;;;;;34.55;18.19;102558.84;5324332;27;20067;-76
2022/04/27 10:43:42;;;;;;;6.80;3.88;;;;;;;36.32;21.70;102569.53;5323378;27;20023;-76
2022/04/27 10:46:39;;;;;;;6.47;4.00;;;;;;;37.01;18.23;102556.22;5321608;27;20017;-76
2022/04/27 10:49:24;;;;;;;6.07;3.70;;;;;;;37.76;17.36;102561.00;5323326;27;20090;-76
2022/04/27 10:52:06;;;;;;;5.55;3.83;;;;;;;38.11;15.49;102563.91;5327640;27;20085;-76
2022/04/27 10:54:39;;;;;;;8.13;3.97;;;;;;;36.99;14.67;102555.66;5320319;28;20032;-76
2022/04/27 10:57:16;;;;;;;6.25;4.00;;;;;;;37.04;16.12;102560.38;5324953;27;20476;-76
2022/04/27 10:59:56;;;;;;;5.28;3.40;;;;;;;36.62;16.94;102559.56;5325214;27;20032;-77
2022/04/27 11:02:30;;;;;;;6.15;3.40;;;;;;;37.51;18.53;102555.53;5320586;27;20020;-76
2022/04/27 11:05:12;;;;;;;5.80;3.90;;;;;;;36.63;16.09;102558.44;5320177;27;20072;-77
2022/04/27 11:08:16;;;;;;;4.35;3.17;;;;;;;38.69;17.02;102549.25;5322997;27;20039;-77
2022/04/27 11:10:51;;;;;;;6.03;3.30;;;;;;;38.03;15.83;102555.00;5322850;27;20099;-77
2022/04/27 11:13:26;;;;;;;5.13;3.83;;;;;;;38.67;14.86;102555.13;5325111;27;20028;-76
2022/04/27 11:16:11;;;;;;;4.60;3.38;;;;;;;40.03;14.57;102552.16;5325025;27;20028;-77
2022/04/27 11:18:59;;;;;;;4.95;3.25;;;;;;;38.25;14.72;102545.41;5329847;27;20434;-77
2022/04/27 11:21:30;;;;;;;5.85;3.53;;;;;;;36.88;15.99;102543.72;5322844;27;20089;-77
2022/04/27 11:24:05;;;;;;;4.27;3.20;;;;;;;37.56;18.22;102545.22;5323304;27;20032;-77
2022/04/27 11:26:41;;;;;;;4.15;3.38;;;;;;;36.16;17.07;102540.06;5323624;28;20048;-77
2022/04/27 11:29:14;;;;;;;6.35;3.85;;;;;;;38.96;14.98;102543.13;5319532;27;20028;-77
2022/04/27 11:31:47;;;;;;;6.65;3.42;;;;;;;36.83;16.34;102543.72;5320392;27;20075;-77
2022/04/27 11:34:27;;;;;;;5.30;3.65;;;;;;;38.30;15.14;102545.38;5319490;27;20089;-77
2022/04/27 11:37:15;;;;;;;4.00;3.30;;;;;;;37.91;15.41;102548.13;5323464;27;20028;-77
2022/04/27 11:39:47;;;;;;;4.40;3.80;;;;;;;38.14;14.56;102546.63;5326047;27;20406;-77
2022/04/27 11:42:18;;;;;;;5.28;3.65;;;;;;;37.86;14.99;102542.59;5322292;27;20121;-76
2022/04/27 11:44:52;;;;;;;5.95;3.60;;;;;;;37.71;14.71;102541.53;5326128;27;20306;-76
2022/04/27 11:47:31;;;;;;;5.05;3.03;;;;;;;37.24;15.73;102540.06;5325074;27;20031;-77
2022/04/27 11:50:04;;;;;;;3.78;2.95;;;;;;;35.69;15.92;102547.41;5313094;27;20108;-77
2022/04/27 11:52:39;;;;;;;6.53;3.30;;;;;;;33.63;17.79;102542.06;5312652;27;20028;-77
2022/04/27 11:55:12;;;;;;;4.00;3.22;;;;;;;30.72;19.12;102541.72;5316557;27;20805;-77
2022/04/27 11:57:45;;;;;;;5.75;3.50;;;;;;;28.79;22.64;102537.47;5312861;27;20131;-77
2022/04/27 12:00:28;;;;;;;7.38;3.75;;;;;;;26.92;23.70;102540.88;5316207;27;20028;-77
2022/04/27 12:03:04;;;;;;;5.28;3.50;;;;;;;27.92;23.76;102540.72;5314172;27;20060;-77
2022/04/27 12:05:37;;;;;;;4.88;3.90;;;;;;;27.99;22.40;102548.09;5309634;27;20043;-77
2022/04/27 12:08:11;;;;;;;6.30;4.00;;;;;;;30.01;21.65;102543.41;5314198;28;20471;-76
2022/04/27 12:10:45;;;;;;;6.65;3.97;;;;;;;33.71;18.29;102536.09;5313018;27;20040;-76
2022/04/27 12:13:21;;;;;;;7.68;3.80;;;;;;;35.74;18.75;102538.28;5312666;27;20016;-77
2022/04/27 12:15:58;;;;;;;5.93;4.00;;;;;;;34.02;18.00;102539.19;5318042;28;20040;-76